createdAt,value
2018-03-22T00:04:06.566Z,14.27
2018-03-22T00:09:10.001Z,16.03
2018-03-22T00:14:13.901Z,15.20
2018-03-22T00:19:17.710Z,16.07
2018-03-22T00:24:22.845Z,13.33
2018-03-22T00:29:25.433Z,14.70
2018-03-22T00:34:28.017Z,12.20
2018-03-22T00:39:30.584Z,14.67
2018-03-22T00:44:33.197Z,13.27
2018-03-22T00:49:39.160Z,12.80
2018-03-22T00:54:42.072Z,13.47
2018-03-22T00:59:45.806Z,15.03
2018-03-22T01:09:58.717Z,12.00
2018-03-22T01:15:01.731Z,15.20
2018-03-22T01:20:04.302Z,14.63
2018-03-22T01:25:10.224Z,13.87
2018-03-22T01:36:00.215Z,14.27
2018-03-22T01:41:02.794Z,14.60
2018-03-22T01:46:05.638Z,15.37
2018-03-22T01:51:08.992Z,14.57
2018-03-22T01:56:12.343Z,14.63
2018-03-22T02:01:14.923Z,14.37
2018-03-22T02:06:18.158Z,14.47
2018-03-22T02:11:21.295Z,15.70
2018-03-22T02:16:27.142Z,16.17
2018-03-22T02:21:29.893Z,13.93
2018-03-22T02:26:32.481Z,17.33
2018-03-22T02:31:36.472Z,16.70
2018-03-22T02:36:39.314Z,15.17
2018-03-22T02:41:42.655Z,15.63
2018-03-22T02:46:48.584Z,15.07
2018-03-22T02:51:52.651Z,20.30
2018-03-22T02:56:57.902Z,15.53
2018-03-22T03:02:03.384Z,16.60
2018-03-22T03:07:05.979Z,13.27
2018-03-22T03:12:08.556Z,15.37
2018-03-22T03:17:12.491Z,14.20
2018-03-22T03:22:16.308Z,14.63
2018-03-22T03:27:18.908Z,18.87
2018-03-22T03:32:22.321Z,17.50
2018-03-22T03:37:26.178Z,15.00
2018-03-22T03:42:29.555Z,14.50
2018-03-22T03:47:32.652Z,15.83
2018-03-22T03:52:35.250Z,13.50
2018-03-22T03:57:38.130Z,16.57
2018-03-22T04:02:40.718Z,17.10
2018-03-22T04:07:46.446Z,15.20
2018-03-22T04:12:49.046Z,21.67
2018-03-22T04:17:52.355Z,14.90
2018-03-22T04:22:54.950Z,17.90
2018-03-22T04:27:57.562Z,18.00
2018-03-22T04:33:00.393Z,19.90
2018-03-22T04:38:03.737Z,17.40
2018-03-22T04:43:06.337Z,17.77
2018-03-22T04:48:08.924Z,22.77
2018-03-22T04:53:12.947Z,18.37
2018-03-22T04:58:16.314Z,21.00
2018-03-22T05:03:18.909Z,18.40
2018-03-22T05:08:22.149Z,17.50
2018-03-22T05:13:25.082Z,16.30
2018-03-22T05:18:28.441Z,17.63
2018-03-22T05:23:31.585Z,17.67
2018-03-22T05:28:37.166Z,20.37
2018-03-22T05:33:39.749Z,17.50
2018-03-22T05:38:42.337Z,19.70
2018-03-22T05:43:45.490Z,19.50
2018-03-22T05:48:49.721Z,21.17
2018-03-22T05:53:54.934Z,24.83
2018-03-22T05:58:57.529Z,23.20
2018-03-22T06:04:00.350Z,26.87
2018-03-22T06:09:02.944Z,28.53
2018-03-22T06:14:05.530Z,30.57
2018-03-22T06:19:09.228Z,24.07
2018-03-22T06:24:11.944Z,23.93
2018-03-22T06:29:15.408Z,24.77
2018-03-22T06:34:18.016Z,21.20
2018-03-22T06:39:20.696Z,29.27
2018-03-22T06:44:23.324Z,30.57
2018-03-22T06:49:26.696Z,30.43
2018-03-22T06:54:29.320Z,25.10
2018-03-22T06:59:31.969Z,24.07
2018-03-22T07:04:35.361Z,31.53
2018-03-22T07:09:37.949Z,27.60
2018-03-22T07:14:42.840Z,27.00
2018-03-22T07:19:45.505Z,25.13
2018-03-22T07:24:48.103Z,27.87
2018-03-22T07:29:50.812Z,22.40
2018-03-22T07:34:53.444Z,29.97
2018-03-22T07:39:56.201Z,27.70
2018-03-22T07:44:58.863Z,24.03
2018-03-22T07:50:01.672Z,24.00
2018-03-22T07:55:04.337Z,22.73
2018-03-22T08:00:06.922Z,24.57
2018-03-22T08:05:10.422Z,24.73
2018-03-22T08:10:13.843Z,24.10
2018-03-22T08:15:16.485Z,27.00
2018-03-22T08:20:19.105Z,33.93
2018-03-22T08:25:22.741Z,26.10
2018-03-22T08:30:25.368Z,27.33
2018-03-22T08:35:28.022Z,26.30
2018-03-22T08:40:30.656Z,28.80
2018-03-22T08:45:33.267Z,26.23
2018-03-22T08:50:35.884Z,26.70
2018-03-22T08:55:38.560Z,28.63
2018-03-22T09:00:41.248Z,24.87
2018-03-22T09:05:44.634Z,39.33
2018-03-22T09:10:47.216Z,25.07
2018-03-22T09:15:49.832Z,21.23
2018-03-22T09:20:52.450Z,22.30
2018-03-22T09:25:55.868Z,24.67
2018-03-22T09:30:59.639Z,28.73
2018-03-22T09:36:03.106Z,27.67
2018-03-22T09:41:05.811Z,25.63
2018-03-22T09:46:08.542Z,26.13
2018-03-22T09:51:11.141Z,26.43
2018-03-22T09:56:13.737Z,26.23
2018-03-22T10:01:16.370Z,22.13
2018-03-22T10:06:19.021Z,22.57
2018-03-22T10:11:21.665Z,22.63
2018-03-22T10:16:24.349Z,21.10
2018-03-22T10:21:27.132Z,20.87
2018-03-22T10:26:29.899Z,24.43
2018-03-22T10:31:32.572Z,22.90
2018-03-22T10:36:35.230Z,21.73
2018-03-22T10:41:37.988Z,22.20
2018-03-22T10:46:41.591Z,21.27
2018-03-22T10:51:44.247Z,20.40
2018-03-22T10:56:46.913Z,20.50
2018-03-22T11:01:56.001Z,19.73
2018-03-22T11:06:58.635Z,18.90
2018-03-22T11:12:01.328Z,18.43
2018-03-22T11:17:03.981Z,14.63
2018-03-22T11:22:06.607Z,13.03
2018-03-22T11:27:09.325Z,15.00
2018-03-22T11:32:12.012Z,13.07
2018-03-22T11:37:14.633Z,15.10
2018-03-22T11:42:17.892Z,13.13
2018-03-22T11:47:20.933Z,14.77
2018-03-22T11:52:23.573Z,17.80
2018-03-22T11:57:26.242Z,14.30
2018-03-22T12:02:28.948Z,15.47
2018-03-22T12:07:31.557Z,11.93
2018-03-22T12:12:35.317Z,15.40
2018-03-22T12:17:37.993Z,11.33
2018-03-22T12:22:40.659Z,15.27
2018-03-22T12:27:43.269Z,13.77
2018-03-22T12:32:45.897Z,12.97
2018-03-22T12:37:48.541Z,14.07
2018-03-22T12:42:51.151Z,12.03
2018-03-22T12:47:53.829Z,15.13
2018-03-22T12:52:56.481Z,14.20
2018-03-22T12:57:59.104Z,13.73
2018-03-22T13:03:01.721Z,14.63
2018-03-22T13:08:04.401Z,11.80
2018-03-22T13:13:07.025Z,11.80
2018-03-22T13:18:09.700Z,11.20
2018-03-22T13:23:12.572Z,12.77
2018-03-22T13:28:15.207Z,16.07
2018-03-22T13:33:17.793Z,12.77
2018-03-22T13:38:20.455Z,12.53
2018-03-22T13:43:23.160Z,11.63
2018-03-22T13:48:26.798Z,14.17
2018-03-22T13:53:29.413Z,13.60
2018-03-22T13:58:32.070Z,14.37
2018-03-22T14:03:34.697Z,14.27
2018-03-22T14:08:37.306Z,13.63
2018-03-22T14:13:39.963Z,12.93
2018-03-22T14:18:42.617Z,13.97
2018-03-22T14:23:45.299Z,15.90
2018-03-22T14:28:47.973Z,14.37
2018-03-22T14:33:50.634Z,11.53
2018-03-22T14:38:54.021Z,17.67
2018-03-22T14:43:56.642Z,11.07
2018-03-22T14:48:59.305Z,15.23
2018-03-22T14:54:01.951Z,14.23
2018-03-22T14:59:05.331Z,13.00
2018-03-22T15:04:08.043Z,15.43
2018-03-22T15:09:10.643Z,14.90
2018-03-22T15:14:13.296Z,13.80
2018-03-22T15:19:15.943Z,12.67
2018-03-22T15:24:18.559Z,15.77
2018-03-22T15:29:21.344Z,10.73
2018-03-22T15:34:24.040Z,11.40
2018-03-22T15:39:26.683Z,13.33
2018-03-22T15:44:29.310Z,11.37
2018-03-22T15:49:32.026Z,11.60
2018-03-22T15:54:34.664Z,11.73
2018-03-22T15:59:37.376Z,14.93
2018-03-22T16:04:40.049Z,17.53
2018-03-22T16:09:42.624Z,9.03
2018-03-22T16:14:45.280Z,11.90
2018-03-22T16:19:47.953Z,11.03
2018-03-22T16:24:50.644Z,11.37
2018-03-22T16:29:53.304Z,10.37
2018-03-22T16:34:56.222Z,9.83
2018-03-22T16:40:01.672Z,9.83
2018-03-22T16:45:05.477Z,11.07
2018-03-22T16:50:08.626Z,10.70
2018-03-22T16:55:11.404Z,9.93
2018-03-22T17:00:14.100Z,14.10
2018-03-22T17:05:16.758Z,11.60
2018-03-22T17:10:19.450Z,12.43
2018-03-22T17:15:22.224Z,12.73
2018-03-22T17:20:27.784Z,9.57
2018-03-22T17:25:30.616Z,12.20
2018-03-22T17:30:35.046Z,13.60
2018-03-22T17:35:37.772Z,17.03
2018-03-22T17:40:44.989Z,10.97
2018-03-22T17:45:47.672Z,15.33
2018-03-22T17:50:56.506Z,12.20
2018-03-22T17:56:00.246Z,16.50
2018-03-22T18:01:02.993Z,13.63
2018-03-22T18:06:05.767Z,15.27
2018-03-22T18:11:08.490Z,16.80
2018-03-22T18:16:11.178Z,14.37
2018-03-22T18:21:14.030Z,18.03
2018-03-22T18:26:16.696Z,18.57
2018-03-22T18:31:19.426Z,16.50
2018-03-22T18:36:22.213Z,15.37
2018-03-22T18:41:24.942Z,18.50
2018-03-22T18:46:27.671Z,15.30
2018-03-22T18:51:30.385Z,15.10
2018-03-22T18:56:33.573Z,13.80
2018-03-22T19:01:36.284Z,14.40
2018-03-22T19:06:39.000Z,17.03
2018-03-22T19:11:41.726Z,15.67
2018-03-22T19:16:44.490Z,21.13
2018-03-22T19:21:47.355Z,14.87
2018-03-22T19:26:50.792Z,14.23
2018-03-22T19:31:53.475Z,19.90
2018-03-22T19:36:56.305Z,16.60
2018-03-22T19:41:58.957Z,21.27
2018-03-22T19:47:01.569Z,28.20
2018-03-22T19:52:04.214Z,22.07
2018-03-22T19:57:06.914Z,27.70
2018-03-22T20:02:09.648Z,28.13
2018-03-22T20:07:12.345Z,30.27
2018-03-22T20:12:15.209Z,31.97
2018-03-22T20:17:18.410Z,34.07
2018-03-22T20:22:21.158Z,37.33
2018-03-22T20:27:23.890Z,30.27
2018-03-22T20:32:26.773Z,37.53
2018-03-22T20:37:29.624Z,40.07
2018-03-22T20:42:32.694Z,33.10
2018-03-22T20:47:35.487Z,35.40
2018-03-22T20:52:38.215Z,31.70
2018-03-22T20:57:41.002Z,32.17
2018-03-22T21:02:43.780Z,31.90
2018-03-22T21:07:46.512Z,31.50
2018-03-22T21:12:50.009Z,35.27
2018-03-22T21:17:52.771Z,38.57
2018-03-22T21:22:55.469Z,34.70
2018-03-22T21:27:58.263Z,37.80
2018-03-22T21:33:00.981Z,33.50
2018-03-22T21:38:03.696Z,33.23
2018-03-22T21:43:06.446Z,36.30
2018-03-22T21:48:09.160Z,36.30
2018-03-22T21:53:11.985Z,31.03
2018-03-22T21:58:14.761Z,40.47
2018-03-22T22:03:17.479Z,38.87
2018-03-22T22:08:20.317Z,34.97
2018-03-22T22:13:23.026Z,40.37
2018-03-22T22:18:25.774Z,42.30
2018-03-22T22:23:28.526Z,48.03
2018-03-22T22:28:31.224Z,47.20
2018-03-22T22:33:33.939Z,47.30
2018-03-22T22:38:37.436Z,52.97
2018-03-22T22:43:40.283Z,48.53
2018-03-22T22:48:43.032Z,53.50
2018-03-22T22:53:45.755Z,44.73
2018-03-22T22:58:48.515Z,48.53
2018-03-22T23:03:51.220Z,41.63
2018-03-22T23:08:53.857Z,45.57
2018-03-22T23:13:56.494Z,44.40
2018-03-22T23:18:59.148Z,39.57
2018-03-22T23:24:01.822Z,46.63
2018-03-22T23:29:04.474Z,41.50
2018-03-22T23:34:07.117Z,44.20
2018-03-22T23:39:09.774Z,44.07
2018-03-22T23:44:12.419Z,37.37
2018-03-22T23:49:15.067Z,38.90
2018-03-22T23:54:17.716Z,40.93
2018-03-22T23:59:20.316Z,38.83
